sensor_id;sensor_type;location;lat;lon;timestamp;temperature;humidity
11221;DHT22;8517;53.546;10.104;2024-01-30T00:01:48;7.80;99.90
11221;DHT22;8517;53.546;10.104;2024-01-30T00:04:15;7.70;99.90
11221;DHT22;8517;53.546;10.104;2024-01-30T00:06:42;7.70;99.90
11221;DHT22;8517;53.546;10.104;2024-01-30T00:09:10;7.70;99.90
11221;DHT22;8517;53.546;10.104;2024-01-30T00:11:37;7.70;99.90
11221;DHT22;8517;53.546;10.104;2024-01-30T00:14:04;7.60;99.90
11221;DHT22;8517;53.546;10.104;2024-01-30T00:16:31;7.60;99.90
11221;DHT22;8517;53.546;10.104;2024-01-30T00:18:58;7.60;99.90
11221;DHT22;8517;53.546;10.104;2024-01-30T00:21:25;7.60;99.90
11221;DHT22;8517;53.546;10.104;2024-01-30T00:23:51;7.60;99.90
11221;DHT22;8517;53.546;10.104;2024-01-30T00:26:20;7.60;99.90
11221;DHT22;8517;53.546;10.104;2024-01-30T00:28:46;7.50;99.90
11221;DHT22;8517;53.546;10.104;2024-01-30T00:31:13;7.50;99.90
11221;DHT22;8517;53.546;10.104;2024-01-30T00:33:40;7.50;99.90
11221;DHT22;8517;53.546;10.104;2024-01-30T00:36:08;7.50;99.90
11221;DHT22;8517;53.546;10.104;2024-01-30T00:38:35;7.50;99.90
11221;DHT22;8517;53.546;10.104;2024-01-30T00:41:03;7.50;99.90
11221;DHT22;8517;53.546;10.104;2024-01-30T00:43:31;7.50;99.90
11221;DHT22;8517;53.546;10.104;2024-01-30T00:45:58;7.50;99.90
11221;DHT22;8517;53.546;10.104;2024-01-30T00:48:25;7.50;99.90
11221;DHT22;8517;53.546;10.104;2024-01-30T00:50:52;7.60;99.90
11221;DHT22;8517;53.546;10.104;2024-01-30T00:53:18;7.50;99.90
11221;DHT22;8517;53.546;10.104;2024-01-30T00:55:45;7.60;99.90
11221;DHT22;8517;53.546;10.104;2024-01-30T00:58:12;7.50;99.90
11221;DHT22;8517;53.546;10.104;2024-01-30T01:00:40;7.50;99.90
11221;DHT22;8517;53.546;10.104;2024-01-30T01:03:07;7.50;99.90
11221;DHT22;8517;53.546;10.104;2024-01-30T01:05:34;7.50;99.90
11221;DHT22;8517;53.546;10.104;2024-01-30T01:08:01;7.50;99.90
11221;DHT22;8517;53.546;10.104;2024-01-30T01:10:27;7.50;99.90
11221;DHT22;8517;53.546;10.104;2024-01-30T01:12:54;7.50;99.90
11221;DHT22;8517;53.546;10.104;2024-01-30T01:15:21;7.50;99.90
11221;DHT22;8517;53.546;10.104;2024-01-30T01:18:17;7.50;99.90
11221;DHT22;8517;53.546;10.104;2024-01-30T01:21:01;7.50;99.90
11221;DHT22;8517;53.546;10.104;2024-01-30T01:23:32;7.50;99.90
11221;DHT22;8517;53.546;10.104;2024-01-30T01:26:03;7.50;99.90
11221;DHT22;8517;53.546;10.104;2024-01-30T01:28:31;7.50;99.90
11221;DHT22;8517;53.546;10.104;2024-01-30T01:30:58;7.50;99.90
11221;DHT22;8517;53.546;10.104;2024-01-30T01:33:32;7.40;99.90
11221;DHT22;8517;53.546;10.104;2024-01-30T01:35:58;7.50;99.90
11221;DHT22;8517;53.546;10.104;2024-01-30T01:38:27;7.50;99.90
11221;DHT22;8517;53.546;10.104;2024-01-30T01:41:16;7.50;99.90
11221;DHT22;8517;53.546;10.104;2024-01-30T01:44:15;7.50;99.90
11221;DHT22;8517;53.546;10.104;2024-01-30T01:46:44;7.50;99.90
11221;DHT22;8517;53.546;10.104;2024-01-30T01:49:14;7.50;99.90
11221;DHT22;8517;53.546;10.104;2024-01-30T01:51:50;7.50;99.90
11221;DHT22;8517;53.546;10.104;2024-01-30T01:54:18;7.40;99.90
11221;DHT22;8517;53.546;10.104;2024-01-30T01:56:45;7.40;99.90
11221;DHT22;8517;53.546;10.104;2024-01-30T01:59:12;7.40;99.90
11221;DHT22;8517;53.546;10.104;2024-01-30T02:01:39;7.40;99.90
11221;DHT22;8517;53.546;10.104;2024-01-30T02:04:07;7.40;99.90
11221;DHT22;8517;53.546;10.104;2024-01-30T02:06:35;7.40;99.90
11221;DHT22;8517;53.546;10.104;2024-01-30T02:09:02;7.30;99.90
11221;DHT22;8517;53.546;10.104;2024-01-30T02:11:30;7.30;99.90
11221;DHT22;8517;53.546;10.104;2024-01-30T02:14:02;7.30;99.90
11221;DHT22;8517;53.546;10.104;2024-01-30T02:16:29;7.30;99.90
11221;DHT22;8517;53.546;10.104;2024-01-30T02:18:56;7.30;99.90
11221;DHT22;8517;53.546;10.104;2024-01-30T02:21:24;7.30;99.90
11221;DHT22;8517;53.546;10.104;2024-01-30T02:23:52;7.40;99.90
11221;DHT22;8517;53.546;10.104;2024-01-30T02:26:21;7.40;99.90
11221;DHT22;8517;53.546;10.104;2024-01-30T02:28:48;7.40;99.90
11221;DHT22;8517;53.546;10.104;2024-01-30T02:31:14;7.40;99.90
11221;DHT22;8517;53.546;10.104;2024-01-30T02:33:41;7.30;99.90
11221;DHT22;8517;53.546;10.104;2024-01-30T02:36:08;7.40;99.90
11221;DHT22;8517;53.546;10.104;2024-01-30T02:38:36;7.30;99.90
11221;DHT22;8517;53.546;10.104;2024-01-30T02:41:03;7.40;99.90
11221;DHT22;8517;53.546;10.104;2024-01-30T02:43:30;7.40;99.90
11221;DHT22;8517;53.546;10.104;2024-01-30T02:45:57;7.40;99.90
11221;DHT22;8517;53.546;10.104;2024-01-30T02:48:25;7.40;99.90
11221;DHT22;8517;53.546;10.104;2024-01-30T02:50:52;7.40;99.90
11221;DHT22;8517;53.546;10.104;2024-01-30T02:53:19;7.40;99.90
11221;DHT22;8517;53.546;10.104;2024-01-30T02:55:47;7.40;99.90
11221;DHT22;8517;53.546;10.104;2024-01-30T02:58:13;7.40;99.90
11221;DHT22;8517;53.546;10.104;2024-01-30T03:00:40;7.40;99.90
11221;DHT22;8517;53.546;10.104;2024-01-30T03:03:07;7.40;99.90
11221;DHT22;8517;53.546;10.104;2024-01-30T03:05:34;7.40;99.90
11221;DHT22;8517;53.546;10.104;2024-01-30T03:08:01;7.40;99.90
11221;DHT22;8517;53.546;10.104;2024-01-30T03:10:28;7.40;99.90
11221;DHT22;8517;53.546;10.104;2024-01-30T03:12:56;7.40;99.90
11221;DHT22;8517;53.546;10.104;2024-01-30T03:15:22;7.40;99.90
11221;DHT22;8517;53.546;10.104;2024-01-30T03:17:49;7.40;99.90
11221;DHT22;8517;53.546;10.104;2024-01-30T03:20:16;7.40;99.90
11221;DHT22;8517;53.546;10.104;2024-01-30T03:22:43;7.40;99.90
11221;DHT22;8517;53.546;10.104;2024-01-30T03:25:10;7.40;99.90
11221;DHT22;8517;53.546;10.104;2024-01-30T03:27:37;7.40;99.90
11221;DHT22;8517;53.546;10.104;2024-01-30T03:30:07;7.40;99.90
11221;DHT22;8517;53.546;10.104;2024-01-30T03:32:34;7.40;99.90
11221;DHT22;8517;53.546;10.104;2024-01-30T03:35:00;7.30;99.90
11221;DHT22;8517;53.546;10.104;2024-01-30T03:37:27;7.30;99.90
11221;DHT22;8517;53.546;10.104;2024-01-30T03:39:54;7.40;99.90
11221;DHT22;8517;53.546;10.104;2024-01-30T03:42:21;7.30;99.90
11221;DHT22;8517;53.546;10.104;2024-01-30T03:44:48;7.40;99.90
11221;DHT22;8517;53.546;10.104;2024-01-30T03:47:18;7.30;99.90
11221;DHT22;8517;53.546;10.104;2024-01-30T03:49:46;7.30;99.90
11221;DHT22;8517;53.546;10.104;2024-01-30T03:52:12;7.30;99.90
11221;DHT22;8517;53.546;10.104;2024-01-30T03:54:39;7.30;99.90
11221;DHT22;8517;53.546;10.104;2024-01-30T03:57:06;7.20;99.90
11221;DHT22;8517;53.546;10.104;2024-01-30T03:59:33;7.20;99.90
11221;DHT22;8517;53.546;10.104;2024-01-30T04:02:00;7.20;99.90
11221;DHT22;8517;53.546;10.104;2024-01-30T04:04:28;7.20;99.90
11221;DHT22;8517;53.546;10.104;2024-01-30T04:06:55;7.20;99.90
11221;DHT22;8517;53.546;10.104;2024-01-30T04:09:22;7.20;99.90
11221;DHT22;8517;53.546;10.104;2024-01-30T04:11:48;7.20;99.90
11221;DHT22;8517;53.546;10.104;2024-01-30T04:14:15;7.10;99.90
11221;DHT22;8517;53.546;10.104;2024-01-30T04:16:42;7.10;99.90
11221;DHT22;8517;53.546;10.104;2024-01-30T04:19:09;7.10;99.90
11221;DHT22;8517;53.546;10.104;2024-01-30T04:21:37;7.10;99.90
11221;DHT22;8517;53.546;10.104;2024-01-30T04:24:04;7.10;99.90
11221;DHT22;8517;53.546;10.104;2024-01-30T04:26:31;7.10;99.90
11221;DHT22;8517;53.546;10.104;2024-01-30T04:28:58;7.10;99.90
11221;DHT22;8517;53.546;10.104;2024-01-30T04:31:25;7.10;99.90
11221;DHT22;8517;53.546;10.104;2024-01-30T04:33:52;7.10;99.90
11221;DHT22;8517;53.546;10.104;2024-01-30T04:36:18;7.00;99.90
11221;DHT22;8517;53.546;10.104;2024-01-30T04:38:46;7.00;99.90
11221;DHT22;8517;53.546;10.104;2024-01-30T04:41:13;7.10;99.90
11221;DHT22;8517;53.546;10.104;2024-01-30T04:43:40;7.00;99.90
11221;DHT22;8517;53.546;10.104;2024-01-30T04:46:07;7.00;99.90
11221;DHT22;8517;53.546;10.104;2024-01-30T04:48:34;7.00;99.90
11221;DHT22;8517;53.546;10.104;2024-01-30T04:51:00;6.90;99.90
11221;DHT22;8517;53.546;10.104;2024-01-30T04:53:29;6.90;99.90
11221;DHT22;8517;53.546;10.104;2024-01-30T04:55:58;6.90;99.90
11221;DHT22;8517;53.546;10.104;2024-01-30T04:58:24;6.90;99.90
11221;DHT22;8517;53.546;10.104;2024-01-30T05:00:51;6.90;99.90
11221;DHT22;8517;53.546;10.104;2024-01-30T05:03:19;6.90;99.90
11221;DHT22;8517;53.546;10.104;2024-01-30T05:05:48;6.90;99.90
11221;DHT22;8517;53.546;10.104;2024-01-30T05:08:14;6.90;99.90
11221;DHT22;8517;53.546;10.104;2024-01-30T05:10:41;6.90;99.90
11221;DHT22;8517;53.546;10.104;2024-01-30T05:13:09;6.90;99.90
11221;DHT22;8517;53.546;10.104;2024-01-30T05:15:39;6.90;99.90
11221;DHT22;8517;53.546;10.104;2024-01-30T05:18:06;6.90;99.90
11221;DHT22;8517;53.546;10.104;2024-01-30T05:20:32;6.90;99.90
11221;DHT22;8517;53.546;10.104;2024-01-30T05:22:59;6.90;99.90
11221;DHT22;8517;53.546;10.104;2024-01-30T05:25:26;6.90;99.90
11221;DHT22;8517;53.546;10.104;2024-01-30T05:27:53;6.90;99.90
11221;DHT22;8517;53.546;10.104;2024-01-30T05:30:22;6.90;99.90
11221;DHT22;8517;53.546;10.104;2024-01-30T05:32:49;6.80;99.90
11221;DHT22;8517;53.546;10.104;2024-01-30T05:35:15;6.80;99.90
11221;DHT22;8517;53.546;10.104;2024-01-30T05:37:42;6.80;99.90
11221;DHT22;8517;53.546;10.104;2024-01-30T05:40:10;6.80;99.90
11221;DHT22;8517;53.546;10.104;2024-01-30T05:42:37;6.90;99.90
11221;DHT22;8517;53.546;10.104;2024-01-30T05:45:05;6.90;99.90
11221;DHT22;8517;53.546;10.104;2024-01-30T05:47:33;6.90;99.90
11221;DHT22;8517;53.546;10.104;2024-01-30T05:50:00;6.90;99.90
11221;DHT22;8517;53.546;10.104;2024-01-30T05:52:26;6.90;99.90
11221;DHT22;8517;53.546;10.104;2024-01-30T05:54:53;6.90;99.90
11221;DHT22;8517;53.546;10.104;2024-01-30T05:57:20;6.90;99.90
11221;DHT22;8517;53.546;10.104;2024-01-30T05:59:47;6.90;99.90
11221;DHT22;8517;53.546;10.104;2024-01-30T06:02:14;6.90;99.90
11221;DHT22;8517;53.546;10.104;2024-01-30T06:04:42;6.90;99.90
11221;DHT22;8517;53.546;10.104;2024-01-30T06:07:10;6.90;99.90
11221;DHT22;8517;53.546;10.104;2024-01-30T06:09:36;6.90;99.90
11221;DHT22;8517;53.546;10.104;2024-01-30T06:12:05;6.90;99.90
11221;DHT22;8517;53.546;10.104;2024-01-30T06:14:32;6.90;99.90
11221;DHT22;8517;53.546;10.104;2024-01-30T06:16:59;6.90;99.90
11221;DHT22;8517;53.546;10.104;2024-01-30T06:19:26;6.90;99.90
11221;DHT22;8517;53.546;10.104;2024-01-30T06:21:54;6.90;99.90
11221;DHT22;8517;53.546;10.104;2024-01-30T06:24:21;6.90;99.90
11221;DHT22;8517;53.546;10.104;2024-01-30T06:26:47;6.90;99.90
11221;DHT22;8517;53.546;10.104;2024-01-30T06:29:14;6.80;99.90
11221;DHT22;8517;53.546;10.104;2024-01-30T06:31:42;6.90;99.90
11221;DHT22;8517;53.546;10.104;2024-01-30T06:34:09;6.80;99.90
11221;DHT22;8517;53.546;10.104;2024-01-30T06:36:36;6.90;99.90
11221;DHT22;8517;53.546;10.104;2024-01-30T06:39:04;6.80;99.90
11221;DHT22;8517;53.546;10.104;2024-01-30T06:41:31;6.90;99.90
11221;DHT22;8517;53.546;10.104;2024-01-30T06:43:58;6.90;99.90
11221;DHT22;8517;53.546;10.104;2024-01-30T06:46:25;6.90;99.90
11221;DHT22;8517;53.546;10.104;2024-01-30T06:48:53;6.90;99.90
11221;DHT22;8517;53.546;10.104;2024-01-30T06:51:19;6.90;99.90
11221;DHT22;8517;53.546;10.104;2024-01-30T06:53:46;6.90;99.90
11221;DHT22;8517;53.546;10.104;2024-01-30T06:56:15;6.90;99.90
11221;DHT22;8517;53.546;10.104;2024-01-30T06:58:46;6.90;99.90
11221;DHT22;8517;53.546;10.104;2024-01-30T07:01:13;6.90;99.90
11221;DHT22;8517;53.546;10.104;2024-01-30T07:03:40;6.90;99.90
11221;DHT22;8517;53.546;10.104;2024-01-30T07:06:07;6.90;99.90
11221;DHT22;8517;53.546;10.104;2024-01-30T07:08:34;6.90;99.90
11221;DHT22;8517;53.546;10.104;2024-01-30T07:11:01;6.90;99.90
11221;DHT22;8517;53.546;10.104;2024-01-30T07:13:29;7.00;99.90
11221;DHT22;8517;53.546;10.104;2024-01-30T07:15:56;6.90;99.90
11221;DHT22;8517;53.546;10.104;2024-01-30T07:18:22;6.90;99.90
11221;DHT22;8517;53.546;10.104;2024-01-30T07:20:49;6.90;99.90
11221;DHT22;8517;53.546;10.104;2024-01-30T07:23:16;6.90;99.90
11221;DHT22;8517;53.546;10.104;2024-01-30T07:25:44;6.90;99.90
11221;DHT22;8517;53.546;10.104;2024-01-30T07:28:11;6.90;99.90
11221;DHT22;8517;53.546;10.104;2024-01-30T07:30:40;7.00;99.90
11221;DHT22;8517;53.546;10.104;2024-01-30T07:33:07;6.90;99.90
11221;DHT22;8517;53.546;10.104;2024-01-30T07:35:35;7.00;99.90
11221;DHT22;8517;53.546;10.104;2024-01-30T07:38:02;7.00;99.90
11221;DHT22;8517;53.546;10.104;2024-01-30T07:40:29;7.00;99.90
11221;DHT22;8517;53.546;10.104;2024-01-30T07:42:56;7.00;99.90
11221;DHT22;8517;53.546;10.104;2024-01-30T07:45:23;7.00;99.90
11221;DHT22;8517;53.546;10.104;2024-01-30T07:47:52;7.00;99.90
11221;DHT22;8517;53.546;10.104;2024-01-30T07:50:18;7.00;99.90
11221;DHT22;8517;53.546;10.104;2024-01-30T07:52:45;7.10;99.90
11221;DHT22;8517;53.546;10.104;2024-01-30T07:55:16;7.10;99.90
11221;DHT22;8517;53.546;10.104;2024-01-30T08:01:27;7.10;99.90
11221;DHT22;8517;53.546;10.104;2024-01-30T08:03:55;7.20;99.90
11221;DHT22;8517;53.546;10.104;2024-01-30T08:06:22;7.20;99.90
11221;DHT22;8517;53.546;10.104;2024-01-30T08:08:49;7.20;99.90
11221;DHT22;8517;53.546;10.104;2024-01-30T08:11:19;7.20;99.90
11221;DHT22;8517;53.546;10.104;2024-01-30T08:13:51;7.20;99.90
11221;DHT22;8517;53.546;10.104;2024-01-30T08:16:17;7.20;99.90
11221;DHT22;8517;53.546;10.104;2024-01-30T08:18:44;7.30;99.90
11221;DHT22;8517;53.546;10.104;2024-01-30T08:21:12;7.40;99.90
11221;DHT22;8517;53.546;10.104;2024-01-30T08:23:39;7.40;99.90
11221;DHT22;8517;53.546;10.104;2024-01-30T08:26:06;7.40;99.90
11221;DHT22;8517;53.546;10.104;2024-01-30T08:28:32;7.50;99.90
11221;DHT22;8517;53.546;10.104;2024-01-30T08:30:59;7.60;99.90
11221;DHT22;8517;53.546;10.104;2024-01-30T08:33:26;7.60;99.90
11221;DHT22;8517;53.546;10.104;2024-01-30T08:35:52;7.60;99.90
11221;DHT22;8517;53.546;10.104;2024-01-30T08:38:20;7.60;99.90
11221;DHT22;8517;53.546;10.104;2024-01-30T08:40:47;7.70;99.90
11221;DHT22;8517;53.546;10.104;2024-01-30T08:43:14;7.70;99.90
11221;DHT22;8517;53.546;10.104;2024-01-30T08:45:41;7.70;99.90
11221;DHT22;8517;53.546;10.104;2024-01-30T08:48:08;7.80;99.90
11221;DHT22;8517;53.546;10.104;2024-01-30T08:50:35;7.80;99.90
11221;DHT22;8517;53.546;10.104;2024-01-30T08:53:02;7.80;99.90
11221;DHT22;8517;53.546;10.104;2024-01-30T08:55:30;7.90;99.90
11221;DHT22;8517;53.546;10.104;2024-01-30T08:57:57;7.90;99.90
11221;DHT22;8517;53.546;10.104;2024-01-30T09:00:25;8.00;99.90
11221;DHT22;8517;53.546;10.104;2024-01-30T09:02:52;8.00;99.90
11221;DHT22;8517;53.546;10.104;2024-01-30T09:05:18;8.10;99.90
11221;DHT22;8517;53.546;10.104;2024-01-30T09:07:45;8.20;99.90
11221;DHT22;8517;53.546;10.104;2024-01-30T09:10:12;8.30;99.90
11221;DHT22;8517;53.546;10.104;2024-01-30T09:12:40;8.40;99.90
11221;DHT22;8517;53.546;10.104;2024-01-30T09:15:08;8.50;99.90
11221;DHT22;8517;53.546;10.104;2024-01-30T09:17:35;8.60;99.90
11221;DHT22;8517;53.546;10.104;2024-01-30T09:20:01;8.70;99.90
11221;DHT22;8517;53.546;10.104;2024-01-30T09:22:28;8.70;99.90
11221;DHT22;8517;53.546;10.104;2024-01-30T09:24:55;8.80;99.90
11221;DHT22;8517;53.546;10.104;2024-01-30T09:27:22;8.90;99.90
11221;DHT22;8517;53.546;10.104;2024-01-30T09:29:50;8.90;99.90
11221;DHT22;8517;53.546;10.104;2024-01-30T09:32:17;8.90;99.90
11221;DHT22;8517;53.546;10.104;2024-01-30T09:34:44;9.00;99.90
11221;DHT22;8517;53.546;10.104;2024-01-30T09:37:11;9.00;99.90
11221;DHT22;8517;53.546;10.104;2024-01-30T09:39:40;9.00;99.90
11221;DHT22;8517;53.546;10.104;2024-01-30T09:42:19;9.00;99.90
11221;DHT22;8517;53.546;10.104;2024-01-30T09:44:52;9.10;99.90
11221;DHT22;8517;53.546;10.104;2024-01-30T09:47:20;9.10;99.90
11221;DHT22;8517;53.546;10.104;2024-01-30T09:49:47;9.10;99.90
11221;DHT22;8517;53.546;10.104;2024-01-30T09:52:15;9.20;99.90
11221;DHT22;8517;53.546;10.104;2024-01-30T09:54:42;9.20;99.90
11221;DHT22;8517;53.546;10.104;2024-01-30T09:57:11;9.20;99.90
11221;DHT22;8517;53.546;10.104;2024-01-30T09:59:38;9.20;99.90
11221;DHT22;8517;53.546;10.104;2024-01-30T10:02:07;9.20;99.90
11221;DHT22;8517;53.546;10.104;2024-01-30T10:04:34;9.20;99.90
11221;DHT22;8517;53.546;10.104;2024-01-30T10:07:02;9.20;99.90
11221;DHT22;8517;53.546;10.104;2024-01-30T10:09:32;9.30;99.90
11221;DHT22;8517;53.546;10.104;2024-01-30T10:11:59;9.30;99.90
11221;DHT22;8517;53.546;10.104;2024-01-30T10:14:25;9.40;99.90
11221;DHT22;8517;53.546;10.104;2024-01-30T10:16:52;9.40;99.90
11221;DHT22;8517;53.546;10.104;2024-01-30T10:19:20;9.50;99.90
11221;DHT22;8517;53.546;10.104;2024-01-30T10:21:47;9.60;99.90
11221;DHT22;8517;53.546;10.104;2024-01-30T10:24:14;9.70;99.90
11221;DHT22;8517;53.546;10.104;2024-01-30T10:26:43;9.70;99.90
11221;DHT22;8517;53.546;10.104;2024-01-30T10:29:10;9.80;99.90
11221;DHT22;8517;53.546;10.104;2024-01-30T10:31:37;9.90;99.90
11221;DHT22;8517;53.546;10.104;2024-01-30T10:34:04;9.90;99.90
11221;DHT22;8517;53.546;10.104;2024-01-30T10:36:39;9.90;99.90
11221;DHT22;8517;53.546;10.104;2024-01-30T10:39:06;9.90;99.90
11221;DHT22;8517;53.546;10.104;2024-01-30T10:41:39;9.90;99.90
11221;DHT22;8517;53.546;10.104;2024-01-30T10:44:10;10.00;99.90
11221;DHT22;8517;53.546;10.104;2024-01-30T10:46:38;10.00;99.90
11221;DHT22;8517;53.546;10.104;2024-01-30T10:49:05;10.10;99.90
11221;DHT22;8517;53.546;10.104;2024-01-30T10:51:34;10.10;99.90
11221;DHT22;8517;53.546;10.104;2024-01-30T10:54:03;10.20;99.90
11221;DHT22;8517;53.546;10.104;2024-01-30T10:56:32;10.20;99.90
11221;DHT22;8517;53.546;10.104;2024-01-30T10:58:59;10.30;99.90
11221;DHT22;8517;53.546;10.104;2024-01-30T11:01:28;10.30;99.90
11221;DHT22;8517;53.546;10.104;2024-01-30T11:03:55;10.40;99.90
11221;DHT22;8517;53.546;10.104;2024-01-30T11:06:23;10.40;99.90
11221;DHT22;8517;53.546;10.104;2024-01-30T11:09:02;10.50;99.90
11221;DHT22;8517;53.546;10.104;2024-01-30T11:11:50;10.50;99.90
11221;DHT22;8517;53.546;10.104;2024-01-30T11:14:22;10.60;99.90
11221;DHT22;8517;53.546;10.104;2024-01-30T11:16:49;10.60;99.90
11221;DHT22;8517;53.546;10.104;2024-01-30T11:19:22;10.70;99.90
11221;DHT22;8517;53.546;10.104;2024-01-30T11:21:50;10.70;99.90
11221;DHT22;8517;53.546;10.104;2024-01-30T11:24:21;10.80;99.90
11221;DHT22;8517;53.546;10.104;2024-01-30T11:26:48;10.80;99.90
11221;DHT22;8517;53.546;10.104;2024-01-30T11:29:17;10.80;99.90
11221;DHT22;8517;53.546;10.104;2024-01-30T11:31:51;10.80;99.90
11221;DHT22;8517;53.546;10.104;2024-01-30T11:34:20;10.90;99.90
11221;DHT22;8517;53.546;10.104;2024-01-30T11:36:51;10.80;99.90
11221;DHT22;8517;53.546;10.104;2024-01-30T11:39:21;10.90;99.90
11221;DHT22;8517;53.546;10.104;2024-01-30T11:41:51;10.90;99.90
11221;DHT22;8517;53.546;10.104;2024-01-30T11:44:18;10.90;99.90
11221;DHT22;8517;53.546;10.104;2024-01-30T11:46:47;11.00;99.90
11221;DHT22;8517;53.546;10.104;2024-01-30T11:49:14;11.00;99.90
11221;DHT22;8517;53.546;10.104;2024-01-30T11:51:42;11.00;99.90
11221;DHT22;8517;53.546;10.104;2024-01-30T11:54:09;11.10;99.90
11221;DHT22;8517;53.546;10.104;2024-01-30T11:56:38;11.00;99.90
11221;DHT22;8517;53.546;10.104;2024-01-30T11:59:05;11.00;99.90
11221;DHT22;8517;53.546;10.104;2024-01-30T12:01:32;11.10;99.90
11221;DHT22;8517;53.546;10.104;2024-01-30T12:03:59;11.10;99.90
11221;DHT22;8517;53.546;10.104;2024-01-30T12:06:26;11.10;99.90
11221;DHT22;8517;53.546;10.104;2024-01-30T12:09:00;11.10;99.90
11221;DHT22;8517;53.546;10.104;2024-01-30T12:11:29;11.10;99.90
11221;DHT22;8517;53.546;10.104;2024-01-30T12:13:58;11.10;99.90
11221;DHT22;8517;53.546;10.104;2024-01-30T12:16:25;11.20;99.90
11221;DHT22;8517;53.546;10.104;2024-01-30T12:18:59;11.30;99.90
11221;DHT22;8517;53.546;10.104;2024-01-30T12:21:27;11.30;99.90
11221;DHT22;8517;53.546;10.104;2024-01-30T12:23:56;11.30;99.90
11221;DHT22;8517;53.546;10.104;2024-01-30T12:26:23;11.30;99.90
11221;DHT22;8517;53.546;10.104;2024-01-30T12:28:53;11.40;99.90
11221;DHT22;8517;53.546;10.104;2024-01-30T12:31:26;11.40;99.90
11221;DHT22;8517;53.546;10.104;2024-01-30T12:33:53;11.40;99.90
11221;DHT22;8517;53.546;10.104;2024-01-30T12:36:21;11.50;99.90
11221;DHT22;8517;53.546;10.104;2024-01-30T12:38:48;11.50;99.90
11221;DHT22;8517;53.546;10.104;2024-01-30T12:41:15;11.60;99.90
11221;DHT22;8517;53.546;10.104;2024-01-30T12:43:42;11.60;99.90
11221;DHT22;8517;53.546;10.104;2024-01-30T12:46:09;11.60;99.90
11221;DHT22;8517;53.546;10.104;2024-01-30T12:48:37;11.70;99.90
11221;DHT22;8517;53.546;10.104;2024-01-30T12:51:04;11.70;99.90
11221;DHT22;8517;53.546;10.104;2024-01-30T12:53:31;11.70;99.90
11221;DHT22;8517;53.546;10.104;2024-01-30T12:55:58;11.70;99.90
11221;DHT22;8517;53.546;10.104;2024-01-30T12:58:25;11.80;99.90
11221;DHT22;8517;53.546;10.104;2024-01-30T13:00:52;11.80;99.90
11221;DHT22;8517;53.546;10.104;2024-01-30T13:03:19;11.90;99.90
11221;DHT22;8517;53.546;10.104;2024-01-30T13:05:48;11.90;99.90
11221;DHT22;8517;53.546;10.104;2024-01-30T13:08:14;12.00;99.90
11221;DHT22;8517;53.546;10.104;2024-01-30T13:10:41;12.00;99.90
11221;DHT22;8517;53.546;10.104;2024-01-30T13:13:08;12.10;99.90
11221;DHT22;8517;53.546;10.104;2024-01-30T13:15:37;12.10;99.90
11221;DHT22;8517;53.546;10.104;2024-01-30T13:18:06;12.20;99.90
11221;DHT22;8517;53.546;10.104;2024-01-30T13:20:33;12.30;99.90
11221;DHT22;8517;53.546;10.104;2024-01-30T13:23:02;12.30;99.90
11221;DHT22;8517;53.546;10.104;2024-01-30T13:25:28;12.30;99.90
11221;DHT22;8517;53.546;10.104;2024-01-30T13:27:55;12.40;99.90
11221;DHT22;8517;53.546;10.104;2024-01-30T13:30:22;12.40;99.90
11221;DHT22;8517;53.546;10.104;2024-01-30T13:32:49;12.40;99.90
11221;DHT22;8517;53.546;10.104;2024-01-30T13:35:16;12.40;99.90
11221;DHT22;8517;53.546;10.104;2024-01-30T13:37:43;12.50;99.90
11221;DHT22;8517;53.546;10.104;2024-01-30T13:40:12;12.50;99.90
11221;DHT22;8517;53.546;10.104;2024-01-30T13:42:39;12.50;99.90
11221;DHT22;8517;53.546;10.104;2024-01-30T13:45:07;12.50;99.90
11221;DHT22;8517;53.546;10.104;2024-01-30T13:47:35;12.60;99.90
11221;DHT22;8517;53.546;10.104;2024-01-30T13:50:02;12.60;99.90
11221;DHT22;8517;53.546;10.104;2024-01-30T13:52:29;12.60;99.90
11221;DHT22;8517;53.546;10.104;2024-01-30T13:54:56;12.60;99.90
11221;DHT22;8517;53.546;10.104;2024-01-30T13:57:24;12.60;99.90
11221;DHT22;8517;53.546;10.104;2024-01-30T13:59:52;12.60;99.90
11221;DHT22;8517;53.546;10.104;2024-01-30T14:02:19;12.60;99.90
11221;DHT22;8517;53.546;10.104;2024-01-30T14:04:46;12.60;99.90
11221;DHT22;8517;53.546;10.104;2024-01-30T14:07:22;12.60;99.90
11221;DHT22;8517;53.546;10.104;2024-01-30T14:09:49;12.60;99.90
11221;DHT22;8517;53.546;10.104;2024-01-30T14:12:16;12.60;99.90
11221;DHT22;8517;53.546;10.104;2024-01-30T14:14:44;12.60;99.90
11221;DHT22;8517;53.546;10.104;2024-01-30T14:17:11;12.60;99.90
11221;DHT22;8517;53.546;10.104;2024-01-30T14:19:38;12.60;99.90
11221;DHT22;8517;53.546;10.104;2024-01-30T14:22:05;12.60;99.90
11221;DHT22;8517;53.546;10.104;2024-01-30T14:24:32;12.60;99.90
11221;DHT22;8517;53.546;10.104;2024-01-30T14:26:59;12.60;99.90
11221;DHT22;8517;53.546;10.104;2024-01-30T14:29:26;12.60;99.90
11221;DHT22;8517;53.546;10.104;2024-01-30T14:31:54;12.50;99.90
11221;DHT22;8517;53.546;10.104;2024-01-30T14:34:22;12.60;99.90
11221;DHT22;8517;53.546;10.104;2024-01-30T14:36:48;12.60;99.90
11221;DHT22;8517;53.546;10.104;2024-01-30T14:39:15;12.60;99.90
11221;DHT22;8517;53.546;10.104;2024-01-30T14:41:43;12.60;99.90
11221;DHT22;8517;53.546;10.104;2024-01-30T14:44:10;12.60;99.90
11221;DHT22;8517;53.546;10.104;2024-01-30T14:46:37;12.60;99.90
11221;DHT22;8517;53.546;10.104;2024-01-30T14:49:05;12.50;99.90
11221;DHT22;8517;53.546;10.104;2024-01-30T14:51:33;12.50;99.90
11221;DHT22;8517;53.546;10.104;2024-01-30T14:54:01;12.60;99.90
11221;DHT22;8517;53.546;10.104;2024-01-30T14:56:28;12.60;99.90
11221;DHT22;8517;53.546;10.104;2024-01-30T14:58:55;12.50;99.90
11221;DHT22;8517;53.546;10.104;2024-01-30T15:01:22;12.50;99.90
11221;DHT22;8517;53.546;10.104;2024-01-30T15:03:55;12.60;99.90
11221;DHT22;8517;53.546;10.104;2024-01-30T15:06:31;12.60;99.90
11221;DHT22;8517;53.546;10.104;2024-01-30T15:08:58;12.60;99.90
11221;DHT22;8517;53.546;10.104;2024-01-30T15:11:25;12.60;99.90
11221;DHT22;8517;53.546;10.104;2024-01-30T15:13:52;12.60;99.90
11221;DHT22;8517;53.546;10.104;2024-01-30T15:16:19;12.60;99.90
11221;DHT22;8517;53.546;10.104;2024-01-30T15:18:46;12.60;99.90
11221;DHT22;8517;53.546;10.104;2024-01-30T15:21:13;12.60;99.90
11221;DHT22;8517;53.546;10.104;2024-01-30T15:23:41;12.60;99.90
11221;DHT22;8517;53.546;10.104;2024-01-30T15:26:09;12.60;99.90
11221;DHT22;8517;53.546;10.104;2024-01-30T15:28:37;12.60;99.90
11221;DHT22;8517;53.546;10.104;2024-01-30T15:31:04;12.60;99.90
11221;DHT22;8517;53.546;10.104;2024-01-30T15:33:32;12.60;99.90
11221;DHT22;8517;53.546;10.104;2024-01-30T15:36:12;12.60;99.90
11221;DHT22;8517;53.546;10.104;2024-01-30T15:38:41;12.60;99.90
11221;DHT22;8517;53.546;10.104;2024-01-30T15:41:08;12.60;99.90
11221;DHT22;8517;53.546;10.104;2024-01-30T15:43:35;12.60;99.90
11221;DHT22;8517;53.546;10.104;2024-01-30T15:46:02;12.60;99.90
11221;DHT22;8517;53.546;10.104;2024-01-30T15:48:29;12.60;99.90